RESULTATS »

INSCRITS PRESENTATS ACABEN RETIRATS DESQUALIFICATS DIST. TRAM 1 DIST. TRAM 2 DIST. TRAM 3 TEMP. EXT TEMP. AIGUA
104 92 77 15 0 3800 180 42 19 22

CLASSIFICACIÓ

MASCULÍ FEMENÍ CATEGORIES CLUBS (MASCULINA) CLUBS (FEMENINA) INDIVIDUALS GRUPS D'EDAT

LLOCDORSALNOMCLUBCAT.T.META| P.Tram 1 || P.Tram 2 |Km/hTEMPS| P.Tram 3 |PARC_1PARC_2
1 68ALBERT JIMENEZ GARCESC.E. RAYOTEAMV1M08:19:23700:59:02104:22:4841.1005:21:50202:57:3300:01:3600:01:26
2 22PAWEL MIZIARSKILLICENCIA DE DIAABM08:45:58200:55:11204:37:0338.9805:32:14503:13:4400:02:1600:01:04
3 46MATEUSZ GRZYBEKLLICENCIA DE DIAABM08:50:403201:08:32304:45:0637.8805:53:38102:57:0200:01:5100:01:29
4 77TONI PALLARES GRIMACLUB TRIATLO VALLIRANAV1M08:56:00600:58:53504:51:1437.0805:50:07403:05:5300:01:2500:01:53
5 12LUKASZ GRZYBEKLLICENCIA DE DIAV1M09:00:302901:07:18404:50:0337.2305:57:21303:03:0900:02:2900:01:19
6 85JUAN MIGUEL MORENO RIVERTCLUB ESPORTIU I RUN WITH V1M09:24:191300:59:46704:55:3336.5405:55:191003:29:0000:02:4000:02:19
7 71PIETRO MERELLO COLOMÉC.T. CENTURIO TARRACOABM09:25:451200:59:401005:00:5035.9006:00:30603:25:1500:02:5000:01:50
8 67SERGIO AGOST PORCARCLUB TRIATLO VALLIRANAV1M09:33:221901:03:131105:01:5535.7706:05:08903:28:1400:01:5800:01:26
9 91OSCAR ABIZANDA ZUHEROSCLUB ESPORTIU I RUN WITH ABM09:37:23800:59:041605:09:1034.9306:08:141103:29:0900:01:3400:02:24
10 70DANI VAQUE NUÑEZC.E. KATOA BARCELONAV1M09:38:061100:59:371505:08:4234.9906:08:191203:29:4700:03:0700:02:34
11 6JORDAN DUNNEEAST CORK TRIBEABM09:43:29500:58:45804:57:5036.2605:56:351903:46:5400:02:0500:01:30
12 61JOSE LUIS ALVAREZ LOPEZC.D.E. LA TRIBU 4BS TRIATV2M09:48:303401:08:551905:12:2134.5806:21:16803:27:1400:02:3300:02:38
13 89HÉCTOR VALIENTEC.T. CENTURIO TARRACOV1M10:05:023001:07:291305:07:4535.0906:15:142103:49:4800:02:5300:01:17
14 47XAVI REIG ARMEROLLICENCIA DE DIAABM10:08:022401:04:362105:20:1933.7206:24:551803:43:0700:03:3000:02:21
15 16ROBIN TONYLLICENCIA DE DIAABM10:10:031701:02:151205:07:3735.1106:09:522504:00:1100:02:4000:02:31
16 87RAFAEL DIAZ RUBIOCLUB TRIATLO VALLIRANAV1M10:12:044901:13:092005:19:1333.8306:32:221603:39:4200:03:2600:02:33
17 81MANUEL ALCAZAR MATEOSTRIATLO JOVENT 79V2M10:13:003901:09:541405:07:5535.0706:17:492203:55:1100:02:3900:02:05
18 48DAVID ÁLVAREZ OLIVARES LLICENCIA DE DIAABM10:15:011501:01:123705:40:2231.7306:41:341303:33:2700:03:2700:01:17
19 43CRISTIAN BERTOMEU BELLESLLICENCIA DE DIAABM10:19:043701:09:491805:11:2634.6806:21:152303:57:4900:02:0800:02:48
20 98CHRISTIAN RODRIGUEZ PEDRACLUB TRIATLO VALLIRANAABM10:22:034801:13:062305:21:0633.6306:34:122003:47:5100:04:1000:02:28
21 10PEDRO JAVIER DÍAZ GÁZQUEZCLUB TRIATLÓN LORCAV1M10:26:051401:01:012805:26:3133.0806:27:322403:58:3300:03:5700:03:01
22 30SALVADOR GARCIA MORAC.T. M1 SALINAS CARV1M10:28:021801:03:112205:20:2933.7006:23:402904:04:2200:03:0300:01:31
23 39CHENE OLIVIERLLICENCIA DE DIAABM10:29:042001:03:191705:10:2734.7906:13:463204:15:1800:03:3400:02:30
24 92JAIME ESCOLANO FERNANDEZCLUB TRIATLO VALLIRANAABM10:31:026701:17:443405:35:2032.2106:53:041503:37:5800:03:3200:02:30
25 17PAU M. FERRÉ JUSTLLICENCIA DE DIAABM10:31:043101:07:505005:56:3330.2907:04:23703:26:4100:05:2000:06:55
26 8KEVIN FENNESSYEAST CORK TRIBEV1M10:35:022601:06:13905:00:2735.9506:06:403904:28:2200:03:0100:02:35
27 18JUAN DIEGO LOPEZ ESCUDEROLLICENCIA DE DIAABM10:45:005101:13:402905:30:3332.6706:44:132604:00:4700:03:5000:01:50
28 54ORIOL ANGULO ROIGTRIATLO FISIORUTPUJOL.COMV1M10:49:006101:17:014305:49:5330.8707:06:541703:42:0600:04:3200:02:43
29 83GERMAN HIDALGO LIGEROC.N. TERRASSAV1M10:52:002201:04:042405:22:3533.4806:26:393504:25:2100:03:0000:02:30
30 14RONAN FORDEEAST CORK TRIBEV1M10:58:054201:10:21604:55:1336.5806:05:345304:52:3100:02:3600:01:35
31 66MARC GISPERT GIRONINDEPENDIENTEABM11:00:014701:12:596206:11:2429.0807:24:231403:35:3800:08:1800:04:48
32 94TONI AMAT VENTURATRIATLO JOVENT 79V2M11:01:042801:06:502705:26:0333.1206:32:533804:28:1100:03:4200:02:10
33 65DAVID JIMENEZ ZAFRATRIATLO JOVENT 79V1M11:10:01900:59:102505:23:4133.3706:22:514904:47:1000:04:0000:03:15
34 9MARK HILTONLLICENCIA DE DIAV2M11:10:054301:10:364005:45:5931.2206:56:353104:13:3000:03:3900:03:09
35 82JUAN CARLOS SERRAT GURRERCLUB NATACIO SITGESV1M11:17:01300:55:132605:25:4333.1606:20:566104:56:0500:04:5400:04:14
36 79XAVIER LOPEZ RUIZC.N. TERRASSAV1M11:25:036801:17:584205:48:0931.0207:06:073304:18:5600:04:0200:01:26
37 93DAVID CURTO RUEC.E. TRILERCAVONS TERRES ABM11:25:031000:59:353605:37:4031.9806:37:155004:47:4800:03:3800:02:20
38 52JAVIER ALONSO CABRILLOLLICENCIA DE DIAV1M11:28:006001:16:395906:08:2529.3107:25:042704:02:5600:02:2400:01:04
39 104LETICIA MENENDEZ LOPEZTRIATLON CARABANCHELV1F11:30:047601:32:484505:53:5230.5207:26:402804:03:2400:02:5000:01:50
40 44GAIZKA ARAMBURU ERAÑAINDEPENDENTV1M11:31:011601:02:003305:34:4532.2606:36:455704:54:1600:03:2700:04:24
41 60AXIER SOLIS GALARZATRIGOI T.T.V1M11:32:025201:13:494605:54:2730.4707:08:163404:23:4600:03:4400:05:56
42 33EMILIANO BALLESTEROS LLICENCIA DE DIAABM11:34:004501:11:313805:41:3131.6206:53:024404:40:5800:04:0100:04:20
43 64DANIEL CHARLES QUINTANILLC.N. TERRASSAV1M11:39:054101:10:123505:35:5932.1406:46:115404:52:5400:03:5700:02:54
44 84JOSE MANUEL FUNEZ PUERTASCLUB TRIATLO VALLIRANAV2M11:41:054601:11:595306:01:3329.8707:13:323704:27:3300:03:5100:02:39
45 36LECUYER FABIENLLICENCIA DE DIAABM11:45:012101:03:265606:06:4729.4507:10:134304:34:4800:04:2800:02:48
46 37VERNE ROMAINLLICENCIA DE DIAV1M11:45:016301:17:243005:32:5732.4406:50:215804:54:4000:04:1300:01:12
47 40MARTIN BENOÎTLLICENCIA DE DIAABM11:45:015301:14:043205:33:4632.3606:47:506204:57:1100:03:4000:01:19
48 56FAUSTINO BLANCO MANCEBOCLUB DEPORTIVO TRIATLON BV3M11:46:023501:09:025806:07:3729.3807:16:394104:29:2300:02:3600:05:07
49 53JESUS BERNAL MORENOCLUB DEPORTIVO HUESCAV2M11:46:036501:17:436506:17:3328.6107:35:163004:10:4700:03:3300:02:52
50 25RICARDO LLANOS DOMINGUEZLLICENCIA DE DIAV1M11:46:045701:16:054105:46:0031.2107:02:054704:43:5900:05:5700:03:23
51 50MIQUEL ALIMBAU REVERTELLICENCIA DE DIAV1M11:47:022301:04:254705:54:4530.4406:59:105104:47:5200:03:3600:02:36
52 5JAVIER ASÍN QUEROLLLICENCIA DE DIAV1M11:52:025401:14:084805:55:4430.3607:09:524504:42:1000:06:4500:06:36
53 41PAUL PLAYERLLICENCIA DE DIAV2M11:55:00400:55:195506:03:5629.6806:59:156004:55:4500:03:4300:04:18
54 59JESUS MIGUEL SANCHEZ FELISTADIUM VENECIAV2M11:57:035601:15:356306:14:2728.8407:30:023604:27:0100:06:5600:06:39
55 55JORDI MAIQUES DERNC.N. TERRASSAV2M12:03:053601:09:425706:07:0729.4207:16:494804:46:1600:03:0600:04:41
56 88ADRIA ORGA MARCOSC.T. CENTURIO TARRACOABM12:08:055801:16:284905:56:3130.2907:12:595904:55:0600:03:5100:02:16
57 21ANTONIO LUIS PIÑERA LUCASLLICENCIA DE DIAV1M12:09:032701:06:266006:09:0429.2607:15:305504:53:3300:03:3900:04:19
58 15ANGEL SALVADOR RAMÍREZ LLICENCIA DE DIAABM12:10:03100:55:073905:42:4131.5206:37:487005:32:1500:03:5000:03:23
59 100SILVIA MONSERRATE VIDALESSENCIAL TRIATLOV1F12:11:027301:30:566106:11:1829.0907:42:144004:28:4800:03:2000:01:26
60 24MANUEL BAEZA NAVARROLLICÈNCIA DE DIAV2M12:20:006201:17:056606:19:1528.4807:36:204604:43:4000:03:4300:04:16
61 69CRISTIAN MARRO BELLOTINDEPENDIENTEABM12:28:026901:21:057106:34:0327.4107:55:084204:32:5400:03:4500:06:10
62 51JUAN CARLOS SEMINARIO APELLICENCIA DE DIAV2M12:37:034001:10:035205:59:3830.0307:09:416905:27:2200:04:3500:04:14
63 97CARLOS ANDRES RAMÍREZ DUACLUB TRIATLON TRES CANTOSV2M12:37:042501:05:553105:33:4132.3706:39:367405:57:2800:02:4000:02:52
64 75FIDEL LEON PEREZCLUB TRIATLO BLANESV2M12:39:047001:23:224405:51:5530.6907:15:176705:23:4700:04:0900:02:52
65 101ELISABET MUÑOZ GARCIAESSENCIAL TRIATLOV1F12:41:007201:27:176906:25:2128.0307:52:385204:48:2200:03:4600:02:59
66 62JORGE AMORES ESPAÑAC.T. M1 SALINAS CARV2M12:42:057401:31:00000:00:000.0000:00:00000:00:0000:04:3000:00:00
67 20MARCO ANTONIO ALMENDROS HTRIATLON VILLALBAV1M12:52:045901:16:337206:41:5226.8707:58:255604:53:3900:05:5200:05:11
68 29ROGER DE LA GUERRA GRAOLLICENCIA DE DIAV1M12:57:003301:08:496806:24:3528.0807:33:246605:23:3600:04:0700:05:24
69 34ALBERT ORDUÑA GALLEGOLLICENCIA DE DIAABM12:57:006401:17:375105:57:5630.1707:15:337305:41:2700:04:5700:03:20
70 1EDU SERRES LOPEZLLICENCIA DE DIAABM12:58:015001:13:385406:03:2429.7207:17:027205:40:5900:03:3800:02:19
71 11VICENT SANCHIS RANCHLLICENCIA DE DIAV2M13:01:047501:31:096406:16:2628.6907:47:356405:13:2900:02:4500:07:50
72 102BELEN PEREZ MATEOSLLICENCIA DE DIAV1F13:01:044401:10:367006:31:5327.5607:42:296505:18:3500:05:0100:02:44
73 57LLUIS CIRERA ANTONLLICENCIA DE DIAV1M13:19:013801:09:507306:43:1826.7807:53:086805:25:5300:04:1500:03:27
74 32XIMO TURON SALVADOLLICENCIA DE DIAV2M13:54:047101:24:546706:20:5428.3507:45:487506:08:1600:02:4600:02:33
75 76CARLES PALOBART MARTINEZTRIATLO JOVENT 79V3M14:33:006601:17:437407:04:1525.4608:21:587606:11:0200:08:2300:06:53
76 35DANI ESCUDERO COLOMINESLLICENCIA DE DIAV1M14:34:015501:14:337507:43:5723.2808:58:307105:35:3100:06:1200:16:00
77 13MANEL MESTRE BENTANACHSLLICENCIA DE DIAV1M14:40:367701:40:387607:59:1522.5409:39:536305:00:4300:10:3600:09:14


NF 80SERGIO CARA QUEROINDEPENDIENTEABM00:00:00000:58:53005:00:3135.9405:59:24000:00:0000:01:5800:01:13
NF 86ABEL ALMODOVAR MORALESCLUB TRIATLO VALLIRANAV1M00:00:00000:59:05005:06:0335.2906:05:08000:00:0000:01:3700:01:38
NF 99MIQUEL FERRÓN SOLÀC.N. VIC-ETBV1M00:00:00001:04:33006:28:2927.8007:33:02000:00:0000:02:5000:02:29
NF 103CONCEPCION CABRERA BONETCDE  AGUAVERDEV2F00:00:006901:18:037708:01:0322.4509:19:067000:00:0000:07:4600:05:45
NF 96OSCAR GOMEZ FERNANDEZTRIATLO JOVENT 79V1M00:00:00001:03:48000:00:000.0000:00:00000:00:0000:03:0700:00:00
NF 23ANDREU DE LA CRUZ GILILLICENCIA DE DIAV1M00:00:00001:52:09008:25:5121.3510:18:00000:00:0000:07:1300:00:00
NF 26MARCEL SERENA ULLÉSLLICENCIA DE DIAV2M00:00:00001:16:44006:41:4526.8807:58:29000:00:0000:05:1100:05:25
NF 28PEDRO HERNANDEZ PASCUALLLICENCIA DE DIAV2M00:00:00001:27:30000:00:000.0000:00:00000:00:0000:07:1900:00:00
NF 31FRANCESC MELICH CURTOLLICENCIA DE DIAABM00:00:00001:14:56005:22:1733.5106:37:13000:00:0000:02:2900:02:11
NF 38JOSEP BUERA REBULLIDALLICENCIA DE DIAV1M00:00:00001:18:55005:47:2831.0807:06:23000:00:0000:03:0900:02:37
NF 42JONÁS DELLI PAOLI RAMOSC.T.CANDETLONV1M00:00:00001:01:03005:40:1931.7406:41:22000:00:0000:03:3900:03:17
NF 45ANTONIO SÁNCHEZ ESCRIBANOLLICENCIA DE DIAV1M00:00:00001:10:15006:28:0727.8307:38:22000:00:0000:03:1600:02:18
NF 49TONI JURADO MARTÍNLLICENCIA DE DIAV2M00:00:00001:14:13000:00:000.0000:00:00000:00:0000:07:0200:00:00
NF 72GABRIEL BLANES LUNAC.N. TERRASSAV1M00:00:00001:06:11005:45:1931.2806:51:30000:00:0000:04:4400:01:42
NF 73CARLOS RESTOY SALMERONC.N. TERRASSAV1M00:00:00001:02:37004:52:1136.9605:54:48000:00:0000:02:2600:01:22




NP 74SERGI BERMEJO BARNILST3 TEAMV1M
NP 78ANDREU HUIZINGA POLCLUB ATLETIC TORELLO - TRV1M
NP 90ENRIQUE BARAJAS OJEDAC.N. MATAROV1M
NP 95JORDI CHECA TRABALCLUB ATLETIC TORELLO - TRABM
NP 2RAMÓN GARCÍA PORTILLOLLICENCIA DE DIAV1M
NP 3ILDEFONSO ROMAN TEJEDORINDEPENDENTV2M
NP 4JUAN LUIS DANA GUERREROLLICENCIA DE DIAABM
NP 7VITOR MANUEL PEREIRA CRISLLICENCIA DE DIAV2M
NP 19JUAN ANTONIO DIAZ OLIVALLICENCIA DE DIAV1M
NP 27RICARD BRULLICENCIA DE DIAV1M
NP 58JORDI VALLDEPEREZ RAYALLICENCIA DE DIAABM
NP 63ALBERTO CUARESMA ALVAREZTRIATLO JOVENT 79V1M

FEDERACIÓ CATALANA DE TRIATLÓ
SEU CENTRAL I CORRESPONDÈNCIA: Rambla Guipúscoa 23-25 2on-D · 08018 Barcelona · Tel / Fax : 93 307 93 35